Udo Maru — JM6522 — position and weather

sailwx.info

Track history (hours):
 
Tides and Currents Weather Stations Pressure Air Temp Water Temp Dewpoint Dewpoint Depression Visibility Wind Speed Wind Dir Waves Ship Positions

Udo Maru

Last reported at 2015-Apr-01 05:33 UTC. Time now 2015-Apr-01 16:35 UTC.
Position N 34°38' E 134°58'.

Length 87 m; draft 4.9 m.

Type: Ship (hazmat cat A). MMSI: 431600499.

Date/timePositionNaut miles runAvg speedWind from/ knotsBaromVisibWave heightAir tempDewpointWater temp
2015-Apr-01 05:33N 34°38' E 134°58'8 7.5
2015-Apr-01 04:33N 34°33' E 135°05'1110.9
2015-Apr-01 03:32N 34°22' E 135°02'1010.3
2015-Apr-01 02:33N 34°12' E 135°00'1211.0
2015-Apr-01 01:26N 34°00' E 135°01'231 9.3
2015-Mar-31 00:33N 34°59' E 139°32'1111.0
2015-Mar-30 23:33N 35°07' E 139°42'1010.5
2015-Mar-30 22:33N 35°17' E 139°45'9 8.9
2015-Mar-30 21:34N 35°26' E 139°47'5 5.5
2015-Mar-30 20:33N 35°22' E 139°51'0 0.0
2015-Mar-30 19:33N 35°22' E 139°51'0 0.0
2015-Mar-30 18:33N 35°22' E 139°51'0 0.0
2015-Mar-30 17:33N 35°22' E 139°51'0 0.0
2015-Mar-30 16:33N 35°22' E 139°51'0 0.0
2015-Mar-30 15:33N 35°22' E 139°51'0 0.0
2015-Mar-30 14:33N 35°22' E 139°51'0 0.0
2015-Mar-30 13:33N 35°22' E 139°51'2 1.9
2015-Mar-30 12:33N 35°22' E 139°49'0 0.0
2015-Mar-30 11:33N 35°22' E 139°49'0 0.0
2015-Mar-30 10:33N 35°22' E 139°49'0 0.0
2015-Mar-30 09:33N 35°22' E 139°49'0 0.0
2015-Mar-30 08:33N 35°22' E 139°49'0 0.0
2015-Mar-30 07:33N 35°22' E 139°49'0 0.0
2015-Mar-30 06:33N 35°22' E 139°49'0 0.0
2015-Mar-30 05:33N 35°22' E 139°49'0 0.0
2015-Mar-30 04:33N 35°22' E 139°49'0 0.0
2015-Mar-30 03:33N 35°22' E 139°49'0 0.0
2015-Mar-30 02:33N 35°22' E 139°49'5 4.7
2015-Mar-30 01:33N 35°26' E 139°46'6 5.7
2015-Mar-30 00:33N 35°29' E 139°39'0 0.0
2015-Mar-29 23:33N 35°29' E 139°39'0 0.0
2015-Mar-29 22:33N 35°29' E 139°39'0 0.0
2015-Mar-29 21:33N 35°29' E 139°39'0 0.0
2015-Mar-29 20:33N 35°29' E 139°39'0 0.0
2015-Mar-29 19:33N 35°29' E 139°39'0 0.0
2015-Mar-29 18:33N 35°29' E 139°39'0 0.0
2015-Mar-29 17:33N 35°29' E 139°39'0 0.0
2015-Mar-29 16:33N 35°29' E 139°39'0 0.0
2015-Mar-29 15:33N 35°29' E 139°39'0 0.0
2015-Mar-29 14:33N 35°29' E 139°39'0 0.0
2015-Mar-29 13:33N 35°29' E 139°39'0 0.0
2015-Mar-29 12:33N 35°29' E 139°39'0 0.0
2015-Mar-29 11:33N 35°29' E 139°39'0 0.0
2015-Mar-29 10:33N 35°29' E 139°39'0 0.0
2015-Mar-29 09:33N 35°29' E 139°39'0 0.0
2015-Mar-29 08:33N 35°29' E 139°39'0 0.0
2015-Mar-29 07:33N 35°29' E 139°39'0 0.0
2015-Mar-29 06:33N 35°29' E 139°39'0 0.0
2015-Mar-29 05:33N 35°29' E 139°39'0 0.0
2015-Mar-29 04:33N 35°29' E 139°39'0 0.0
2015-Mar-29 03:30N 35°29' E 139°39'0 0.0
2015-Mar-29 02:33N 35°29' E 139°39'0 0.0
2015-Mar-29 01:33N 35°29' E 139°39'0 0.0
2015-Mar-29 00:33N 35°29' E 139°39'0 0.0
2015-Mar-28 23:33N 35°29' E 139°39'3 3.4
2015-Mar-28 22:33N 35°26' E 139°42'4 3.6
2015-Mar-28 21:33N 35°23' E 139°45'0 0.0
2015-Mar-28 20:33N 35°23' E 139°45'0 0.0
2015-Mar-28 19:33N 35°23' E 139°45'0 0.0
2015-Mar-28 18:33N 35°23' E 139°45'0 0.0
2015-Mar-28 17:33N 35°23' E 139°45'0 0.0
2015-Mar-28 16:33N 35°23' E 139°45'0 0.0
2015-Mar-28 15:33N 35°23' E 139°45'0 0.0
2015-Mar-28 14:33N 35°23' E 139°45'0 0.0
2015-Mar-28 13:33N 35°23' E 139°45'0 0.0
2015-Mar-28 12:33N 35°23' E 139°45'0 0.0
2015-Mar-28 11:33N 35°23' E 139°45'4 4.5
2015-Mar-28 10:33N 35°19' E 139°44'1111.0
2015-Mar-28 09:33N 35°08' E 139°46'1111.1
2015-Mar-28 08:32N 34°60' E 139°36'1412.7
2015-Mar-28 07:27N 34°52' E 139°23'  
2015-Mar-25 12:28N 34°36' E 134°53'1112.5
2015-Mar-25 11:33N 34°36' E 135°07'1312.8
2015-Mar-25 10:33N 34°38' E 135°23'4 4.0
2015-Mar-25 09:29N 34°40' E 135°27'0 0.0
2015-Mar-25 08:33N 34°40' E 135°27'0 0.0
2015-Mar-25 07:33N 34°40' E 135°27'0 0.0
2015-Mar-25 06:32N 34°40' E 135°27'0 0.0
2015-Mar-25 05:33N 34°40' E 135°27'0 0.0
2015-Mar-25 04:15N 34°40' E 135°27'2 2.2
2015-Mar-25 03:33N 34°39' E 135°25'4 4.1
2015-Mar-25 02:33N 34°35' E 135°26'0 0.1
2015-Mar-24 23:04N 34°35' E 135°27'3 6.3
2015-Mar-24 22:33N 34°36' E 135°23'1 0.4
2015-Mar-24 21:06N 34°36' E 135°23'0 0.0
2015-Mar-24 20:33N 34°36' E 135°23'0 0.0
2015-Mar-24 19:33N 34°36' E 135°23'0 0.1
2015-Mar-24 18:33N 34°36' E 135°23'0 0.1
2015-Mar-24 17:33N 34°36' E 135°23'0 0.0
2015-Mar-24 16:32N 34°36' E 135°23'0 0.0
2015-Mar-24 15:33N 34°36' E 135°23'0 0.0
2015-Mar-24 14:33N 34°36' E 135°23'0 0.1
2015-Mar-24 13:33N 34°36' E 135°23'0 0.0
2015-Mar-24 12:33N 34°36' E 135°23'0 0.0
2015-Mar-24 11:33N 34°36' E 135°23'0 0.0
2015-Mar-24 10:33N 34°36' E 135°23'0 0.1
2015-Mar-24 09:33N 34°36' E 135°23'1110.9
2015-Mar-24 08:33N 34°35' E 135°10'1513.5
2015-Mar-24 07:27N 34°34' E 134°52'  
Track history (hours):
 
Tides and Currents Weather Stations Pressure Air Temp Water Temp Dewpoint Dewpoint Depression Visibility Wind Speed Wind Dir Waves Ship Positions

Udo Maru

Last reported at 2015-Apr-01 05:33 UTC. Time now 2015-Apr-01 16:35 UTC.
Position N 34°38' E 134°58'.

Length 87 m; draft 4.9 m.

Type: Ship (hazmat cat A). MMSI: 431600499.

Date/timePositionNaut miles runAvg speedWind from/ knotsBaromVisibWave heightAir tempDewpointWater temp
2015-Apr-01 05:33N 34°38' E 134°58'8 7.5
2015-Apr-01 04:33N 34°33' E 135°05'1110.9
2015-Apr-01 03:32N 34°22' E 135°02'1010.3
2015-Apr-01 02:33N 34°12' E 135°00'1211.0
2015-Apr-01 01:26N 34°00' E 135°01'231 9.3
2015-Mar-31 00:33N 34°59' E 139°32'1111.0
2015-Mar-30 23:33N 35°07' E 139°42'1010.5
2015-Mar-30 22:33N 35°17' E 139°45'9 8.9
2015-Mar-30 21:34N 35°26' E 139°47'5 5.5
2015-Mar-30 20:33N 35°22' E 139°51'0 0.0
2015-Mar-30 19:33N 35°22' E 139°51'0 0.0
2015-Mar-30 18:33N 35°22' E 139°51'0 0.0
2015-Mar-30 17:33N 35°22' E 139°51'0 0.0
2015-Mar-30 16:33N 35°22' E 139°51'0 0.0
2015-Mar-30 15:33N 35°22' E 139°51'0 0.0
2015-Mar-30 14:33N 35°22' E 139°51'0 0.0
2015-Mar-30 13:33N 35°22' E 139°51'2 1.9
2015-Mar-30 12:33N 35°22' E 139°49'0 0.0
2015-Mar-30 11:33N 35°22' E 139°49'0 0.0
2015-Mar-30 10:33N 35°22' E 139°49'0 0.0
2015-Mar-30 09:33N 35°22' E 139°49'0 0.0
2015-Mar-30 08:33N 35°22' E 139°49'0 0.0
2015-Mar-30 07:33N 35°22' E 139°49'0 0.0
2015-Mar-30 06:33N 35°22' E 139°49'0 0.0
2015-Mar-30 05:33N 35°22' E 139°49'0 0.0
2015-Mar-30 04:33N 35°22' E 139°49'0 0.0
2015-Mar-30 03:33N 35°22' E 139°49'0 0.0
2015-Mar-30 02:33N 35°22' E 139°49'5 4.7
2015-Mar-30 01:33N 35°26' E 139°46'6 5.7
2015-Mar-30 00:33N 35°29' E 139°39'0 0.0
2015-Mar-29 23:33N 35°29' E 139°39'0 0.0
2015-Mar-29 22:33N 35°29' E 139°39'0 0.0
2015-Mar-29 21:33N 35°29' E 139°39'0 0.0
2015-Mar-29 20:33N 35°29' E 139°39'0 0.0
2015-Mar-29 19:33N 35°29' E 139°39'0 0.0
2015-Mar-29 18:33N 35°29' E 139°39'0 0.0
2015-Mar-29 17:33N 35°29' E 139°39'0 0.0
2015-Mar-29 16:33N 35°29' E 139°39'0 0.0
2015-Mar-29 15:33N 35°29' E 139°39'0 0.0
2015-Mar-29 14:33N 35°29' E 139°39'0 0.0
2015-Mar-29 13:33N 35°29' E 139°39'0 0.0
2015-Mar-29 12:33N 35°29' E 139°39'0 0.0
2015-Mar-29 11:33N 35°29' E 139°39'0 0.0
2015-Mar-29 10:33N 35°29' E 139°39'0 0.0
2015-Mar-29 09:33N 35°29' E 139°39'0 0.0
2015-Mar-29 08:33N 35°29' E 139°39'0 0.0
2015-Mar-29 07:33N 35°29' E 139°39'0 0.0
2015-Mar-29 06:33N 35°29' E 139°39'0 0.0
2015-Mar-29 05:33N 35°29' E 139°39'0 0.0
2015-Mar-29 04:33N 35°29' E 139°39'0 0.0
2015-Mar-29 03:30N 35°29' E 139°39'0 0.0
2015-Mar-29 02:33N 35°29' E 139°39'0 0.0
2015-Mar-29 01:33N 35°29' E 139°39'0 0.0
2015-Mar-29 00:33N 35°29' E 139°39'0 0.0
2015-Mar-28 23:33N 35°29' E 139°39'3 3.4
2015-Mar-28 22:33N 35°26' E 139°42'4 3.6
2015-Mar-28 21:33N 35°23' E 139°45'0 0.0
2015-Mar-28 20:33N 35°23' E 139°45'0 0.0
2015-Mar-28 19:33N 35°23' E 139°45'0 0.0
2015-Mar-28 18:33N 35°23' E 139°45'0 0.0
2015-Mar-28 17:33N 35°23' E 139°45'0 0.0
2015-Mar-28 16:33N 35°23' E 139°45'0 0.0
2015-Mar-28 15:33N 35°23' E 139°45'0 0.0
2015-Mar-28 14:33N 35°23' E 139°45'0 0.0
2015-Mar-28 13:33N 35°23' E 139°45'0 0.0
2015-Mar-28 12:33N 35°23' E 139°45'0 0.0
2015-Mar-28 11:33N 35°23' E 139°45'4 4.5
2015-Mar-28 10:33N 35°19' E 139°44'1111.0
2015-Mar-28 09:33N 35°08' E 139°46'1111.1
2015-Mar-28 08:32N 34°60' E 139°36'1412.7
2015-Mar-28 07:27N 34°52' E 139°23'  
2015-Mar-25 12:28N 34°36' E 134°53'1112.5
2015-Mar-25 11:33N 34°36' E 135°07'1312.8
2015-Mar-25 10:33N 34°38' E 135°23'4 4.0
2015-Mar-25 09:29N 34°40' E 135°27'0 0.0
2015-Mar-25 08:33N 34°40' E 135°27'0 0.0
2015-Mar-25 07:33N 34°40' E 135°27'0 0.0
2015-Mar-25 06:32N 34°40' E 135°27'0 0.0
2015-Mar-25 05:33N 34°40' E 135°27'0 0.0
2015-Mar-25 04:15N 34°40' E 135°27'2 2.2
2015-Mar-25 03:33N 34°39' E 135°25'4 4.1
2015-Mar-25 02:33N 34°35' E 135°26'0 0.1
2015-Mar-24 23:04N 34°35' E 135°27'3 6.3
2015-Mar-24 22:33N 34°36' E 135°23'1 0.4
2015-Mar-24 21:06N 34°36' E 135°23'0 0.0
2015-Mar-24 20:33N 34°36' E 135°23'0 0.0
2015-Mar-24 19:33N 34°36' E 135°23'0 0.1
2015-Mar-24 18:33N 34°36' E 135°23'0 0.1
2015-Mar-24 17:33N 34°36' E 135°23'0 0.0
2015-Mar-24 16:32N 34°36' E 135°23'0 0.0
2015-Mar-24 15:33N 34°36' E 135°23'0 0.0
2015-Mar-24 14:33N 34°36' E 135°23'0 0.1
2015-Mar-24 13:33N 34°36' E 135°23'0 0.0
2015-Mar-24 12:33N 34°36' E 135°23'0 0.0
2015-Mar-24 11:33N 34°36' E 135°23'0 0.0
2015-Mar-24 10:33N 34°36' E 135°23'0 0.1
2015-Mar-24 09:33N 34°36' E 135°23'1110.9
2015-Mar-24 08:33N 34°35' E 135°10'1513.5
2015-Mar-24 07:27N 34°34' E 134°52'  

Dump ship's entire track history